Time;durP1;ratioP1;P1;durP2;ratioP2;P2;SDS_P1;SDS_P2;PMS_P1;PMS_P2;Temp;Humidity;BMP_temperature;BMP_pressure;BME280_temperature;BME280_humidity;BME280_pressure;Samples;Min_cycle;Max_cycle;Signal;HPM_P1;HPM_P2
2022/04/22 00:00:18;;;;;;;9.02;6.32;;;11.00;99.90;;;;;;4941515;28;20042;-58
2022/04/22 00:02:44;;;;;;;10.68;7.18;;;10.90;99.90;;;;;;4956697;28;20050;-61
2022/04/22 00:05:10;;;;;;;13.63;6.68;;;10.90;99.90;;;;;;4951701;28;20076;-60
2022/04/22 00:07:36;;;;;;;11.90;6.85;;;10.90;99.90;;;;;;4954161;28;20039;-59
2022/04/22 00:10:05;;;;;;;12.00;7.13;;;10.80;99.90;;;;;;4954344;28;20049;-59
2022/04/22 00:12:30;;;;;;;15.40;7.55;;;10.80;99.90;;;;;;4932921;28;20053;-59
2022/04/22 00:14:56;;;;;;;11.63;7.18;;;10.70;99.90;;;;;;4965751;28;20501;-61
2022/04/22 00:17:22;;;;;;;13.35;6.63;;;10.70;99.90;;;;;;4952470;28;20112;-59
2022/04/22 00:19:48;;;;;;;11.32;6.25;;;10.70;99.90;;;;;;4939417;28;20049;-59
2022/04/22 00:22:14;;;;;;;14.75;7.40;;;10.70;99.90;;;;;;4954111;28;20077;-59
2022/04/22 00:24:39;;;;;;;12.75;7.28;;;10.70;99.90;;;;;;4957438;28;20045;-61
2022/04/22 00:27:05;;;;;;;12.80;7.03;;;10.60;99.90;;;;;;4958825;28;20091;-61
2022/04/22 00:29:31;;;;;;;15.57;8.90;;;10.60;99.90;;;;;;4956303;28;20035;-60
2022/04/22 00:31:57;;;;;;;15.48;7.63;;;10.60;99.90;;;;;;4957260;28;20038;-61
2022/04/22 00:34:22;;;;;;;12.07;7.65;;;10.50;99.90;;;;;;4980229;28;20050;-60
2022/04/22 00:36:48;;;;;;;10.70;6.78;;;10.50;99.90;;;;;;4956292;28;20058;-60
2022/04/22 00:39:14;;;;;;;13.57;7.25;;;10.50;99.90;;;;;;4961463;28;20050;-61
2022/04/22 00:41:40;;;;;;;9.93;6.22;;;10.50;99.90;;;;;;4950002;28;20054;-62
2022/04/22 00:44:05;;;;;;;14.88;8.00;;;10.40;99.90;;;;;;4944230;28;20057;-61
2022/04/22 00:46:31;;;;;;;14.23;7.38;;;10.40;99.90;;;;;;4954260;28;20498;-60
2022/04/22 00:48:57;;;;;;;15.05;7.32;;;10.40;99.90;;;;;;4971139;28;20030;-61
2022/04/22 00:51:23;;;;;;;13.30;7.57;;;10.40;99.90;;;;;;4957712;28;20075;-60
2022/04/22 00:53:51;;;;;;;13.05;7.05;;;10.40;99.90;;;;;;4956465;28;20035;-59
2022/04/22 00:56:17;;;;;;;11.82;7.68;;;10.40;99.90;;;;;;4958883;28;20081;-61
2022/04/22 00:58:45;;;;;;;11.32;6.63;;;10.40;99.90;;;;;;4973248;28;20129;-61
2022/04/22 01:01:11;;;;;;;14.43;8.38;;;10.40;99.90;;;;;;4958644;28;20055;-60
2022/04/22 01:03:38;;;;;;;13.05;7.22;;;10.40;99.90;;;;;;4943914;28;20050;-59
2022/04/22 01:11:39;;;;;;;12.13;7.13;;;10.20;99.90;;;;;;4944179;28;20532;-62
2022/04/22 01:14:07;;;;;;;11.68;7.32;;;10.20;99.90;;;;;;4948934;28;20054;-59
2022/04/22 01:16:33;;;;;;;11.95;7.88;;;10.20;99.90;;;;;;4957551;28;20125;-59
2022/04/22 01:18:59;;;;;;;10.80;7.20;;;10.10;99.90;;;;;;4950856;28;20536;-62
2022/04/22 01:21:25;;;;;;;13.73;7.75;;;10.10;99.90;;;;;;4954673;28;20046;-59
2022/04/22 01:23:51;;;;;;;15.52;7.03;;;10.10;99.90;;;;;;4960231;28;20042;-62
2022/04/22 01:26:16;;;;;;;13.70;7.80;;;10.00;99.90;;;;;;4961305;28;20092;-60
2022/04/22 01:28:43;;;;;;;13.73;9.15;;;10.00;99.90;;;;;;4956203;28;20088;-61
2022/04/22 01:31:09;;;;;;;11.70;8.32;;;10.00;99.90;;;;;;4955925;28;20623;-61
2022/04/22 01:33:35;;;;;;;14.95;7.38;;;10.00;99.90;;;;;;4953606;28;20039;-60
2022/04/22 01:36:01;;;;;;;13.57;7.75;;;9.90;99.90;;;;;;4956266;28;20042;-62
2022/04/22 01:38:27;;;;;;;14.55;7.68;;;9.90;99.90;;;;;;4934063;28;22002;-62
2022/04/22 01:40:54;;;;;;;13.48;7.43;;;9.90;99.90;;;;;;4952126;28;20038;-59
2022/04/22 01:43:21;;;;;;;12.57;7.03;;;9.90;99.90;;;;;;4947618;28;20593;-61
2022/04/22 01:45:46;;;;;;;11.43;7.07;;;9.90;99.90;;;;;;4953083;28;20126;-60
2022/04/22 01:48:12;;;;;;;11.90;7.82;;;9.90;99.90;;;;;;4956824;28;20508;-61
2022/04/22 01:50:38;;;;;;;12.38;8.05;;;9.90;99.90;;;;;;4931928;28;20039;-60
2022/04/22 01:53:06;;;;;;;11.43;7.55;;;9.90;99.90;;;;;;4943269;28;20050;-60
2022/04/22 01:55:35;;;;;;;13.80;7.47;;;9.90;99.90;;;;;;4916450;28;20141;-60
2022/04/22 01:58:01;;;;;;;15.15;7.95;;;9.90;99.90;;;;;;4947717;28;20413;-61
2022/04/22 02:00:27;;;;;;;11.98;6.93;;;9.90;99.90;;;;;;4942369;28;20039;-62
2022/04/22 02:02:53;;;;;;;10.82;6.63;;;9.80;99.90;;;;;;4930581;28;20042;-62
2022/04/22 02:05:18;;;;;;;12.68;7.60;;;9.90;99.90;;;;;;4931870;28;20031;-62
2022/04/22 02:07:45;;;;;;;11.95;7.88;;;9.80;99.90;;;;;;4952344;28;20137;-60
2022/04/22 02:10:12;;;;;;;14.50;7.95;;;9.80;99.90;;;;;;4949874;28;20050;-61
2022/04/22 02:12:38;;;;;;;12.68;7.50;;;9.70;99.90;;;;;;4937931;28;20657;-61
2022/04/22 02:15:04;;;;;;;12.32;8.45;;;9.70;99.90;;;;;;4952779;28;20046;-60
2022/04/22 02:17:29;;;;;;;10.80;7.60;;;9.70;99.90;;;;;;4950145;28;20592;-60
2022/04/22 02:19:55;;;;;;;9.77;6.68;;;9.60;99.90;;;;;;4940973;28;20031;-62
2022/04/22 02:22:22;;;;;;;16.70;7.47;;;9.60;99.90;;;;;;4936222;28;20054;-62
2022/04/22 02:24:48;;;;;;;14.60;8.23;;;9.60;99.90;;;;;;4950257;28;20377;-62
2022/04/22 02:29:58;;;;;;;;;;;9.50;99.90;;;;;;4972805;28;20058;-60
2022/04/22 02:32:23;;;;;;;15.73;6.70;;;9.50;99.90;;;;;;4952118;28;20368;-60
2022/04/22 02:34:49;;;;;;;13.93;6.68;;;9.50;99.90;;;;;;4937458;28;20046;-61
2022/04/22 02:37:15;;;;;;;11.35;6.53;;;9.50;99.90;;;;;;4933756;28;20042;-62
2022/04/22 02:39:41;;;;;;;12.35;7.28;;;9.40;99.90;;;;;;4954375;28;20065;-62
2022/04/22 02:47:35;;;;;;;13.20;7.07;;;9.40;99.90;;;;;;4961765;28;19928;-62
2022/04/22 02:50:01;;;;;;;12.65;7.15;;;9.30;99.90;;;;;;4939492;28;20480;-62
2022/04/22 02:52:26;;;;;;;13.30;7.47;;;9.40;99.90;;;;;;4928627;28;20086;-62
2022/04/22 02:54:54;;;;;;;13.95;7.15;;;9.30;99.90;;;;;;4928738;28;20823;-59
2022/04/22 02:57:20;;;;;;;12.75;7.15;;;9.30;99.90;;;;;;4952574;28;20078;-61
2022/04/22 02:59:46;;;;;;;15.20;6.82;;;9.30;99.90;;;;;;4952847;28;20164;-61
2022/04/22 03:02:12;;;;;;;11.55;6.18;;;9.20;99.90;;;;;;4953331;28;20157;-61
2022/04/22 03:04:38;;;;;;;11.70;6.93;;;9.20;99.90;;;;;;4953660;28;20513;-62
2022/04/22 03:07:04;;;;;;;10.20;6.80;;;9.20;99.90;;;;;;4954585;28;20073;-62
2022/04/22 03:09:29;;;;;;;8.95;6.15;;;9.10;99.90;;;;;;4952071;28;20042;-60
2022/04/22 03:11:55;;;;;;;10.13;5.82;;;9.10;99.90;;;;;;4958921;28;20667;-60
2022/04/22 03:14:21;;;;;;;10.27;6.25;;;9.10;99.90;;;;;;4953896;28;20050;-60
2022/04/22 03:16:47;;;;;;;10.75;6.20;;;9.10;99.90;;;;;;4939186;28;20436;-62
2022/04/22 03:19:13;;;;;;;10.10;5.63;;;9.10;99.90;;;;;;4950651;28;20049;-60
2022/04/22 03:21:38;;;;;;;9.77;6.07;;;9.10;99.90;;;;;;4955746;28;20069;-61
2022/04/22 03:24:04;;;;;;;11.68;7.22;;;9.00;99.90;;;;;;4950597;28;20541;-60
2022/04/22 03:26:30;;;;;;;10.88;6.28;;;9.00;99.90;;;;;;4948293;28;20051;-60
2022/04/22 03:28:57;;;;;;;9.80;6.25;;;8.90;99.90;;;;;;4937375;28;20046;-61
2022/04/22 03:31:26;;;;;;;13.65;5.97;;;8.90;99.90;;;;;;4927134;28;20043;-61
2022/04/22 03:33:51;;;;;;;9.95;5.90;;;8.90;99.90;;;;;;4936429;28;20706;-60
2022/04/22 03:36:17;;;;;;;10.45;5.82;;;8.90;99.90;;;;;;4940695;28;20351;-61
2022/04/22 03:38:43;;;;;;;11.93;6.32;;;8.90;99.90;;;;;;4936284;28;20966;-61
2022/04/22 03:41:10;;;;;;;12.80;6.85;;;8.80;99.90;;;;;;4953980;28;20517;-61
2022/04/22 03:43:36;;;;;;;9.93;6.28;;;8.90;99.90;;;;;;4961789;28;20042;-61
2022/04/22 03:46:02;;;;;;;11.40;6.30;;;8.80;99.90;;;;;;4955684;28;20054;-60
2022/04/22 03:48:28;;;;;;;10.40;7.32;;;8.80;99.90;;;;;;4952957;28;20042;-60
2022/04/22 03:50:53;;;;;;;13.02;6.82;;;8.70;99.90;;;;;;4958122;28;20079;-60
2022/04/22 03:53:19;;;;;;;9.75;6.15;;;8.70;99.90;;;;;;4953664;28;20042;-60
2022/04/22 03:55:45;;;;;;;11.43;6.97;;;8.70;99.90;;;;;;4962176;28;20101;-61
2022/04/22 03:58:12;;;;;;;14.95;7.80;;;8.60;99.90;;;;;;4949861;28;20042;-62
2022/04/22 04:00:41;;;;;;;12.40;6.35;;;8.60;99.90;;;;;;4962578;28;20052;-61
2022/04/22 04:03:15;;;;;;;12.18;6.38;;;8.60;99.90;;;;;;4963616;28;20046;-63
2022/04/22 04:05:48;;;;;;;12.20;7.28;;;8.60;99.90;;;;;;4944817;28;20448;-63
2022/04/22 04:08:14;;;;;;;12.35;6.78;;;8.60;99.90;;;;;;4964762;28;20405;-60
2022/04/22 04:16:10;;;;;;;13.43;6.20;;;8.60;99.90;;;;;;4950366;28;20054;-62
2022/04/22 04:18:37;;;;;;;10.63;6.82;;;8.50;99.90;;;;;;4956292;28;20420;-62
2022/04/22 04:23:50;;;;;;;9.77;6.57;;;8.50;99.90;;;;;;4961308;28;20070;-62
2022/04/22 04:26:17;;;;;;;13.07;6.80;;;8.50;99.90;;;;;;4944809;28;20046;-62
2022/04/22 04:28:44;;;;;;;11.40;6.18;;;8.40;99.90;;;;;;4971731;28;20133;-60
2022/04/22 04:31:13;;;;;;;10.60;6.57;;;8.50;99.90;;;;;;4959147;28;20042;-60
2022/04/22 04:33:40;;;;;;;9.95;6.53;;;8.40;99.90;;;;;;4954195;28;20396;-61
2022/04/22 04:36:10;;;;;;;14.02;6.97;;;8.40;99.90;;;;;;4955315;28;21980;-62
2022/04/22 04:38:37;;;;;;;10.75;6.88;;;8.40;99.90;;;;;;4934135;28;20115;-61
2022/04/22 04:41:04;;;;;;;10.20;6.88;;;8.40;99.90;;;;;;4955800;28;21218;-61
2022/04/22 04:43:31;;;;;;;11.85;6.45;;;8.30;99.90;;;;;;4954283;28;20672;-62
2022/04/22 04:45:56;;;;;;;9.93;6.65;;;8.30;99.90;;;;;;4939066;28;20167;-61
2022/04/22 04:48:22;;;;;;;10.13;6.53;;;8.30;99.90;;;;;;4951701;28;20869;-60
2022/04/22 04:50:51;;;;;;;11.48;5.85;;;8.30;99.90;;;;;;4952522;28;21068;-60
2022/04/22 04:53:18;;;;;;;13.73;5.93;;;8.30;99.90;;;;;;4961297;28;20429;-60
2022/04/22 04:55:44;;;;;;;9.82;5.63;;;8.30;99.90;;;;;;4953885;28;20116;-61
2022/04/22 04:58:10;;;;;;;9.88;5.93;;;8.20;99.90;;;;;;4937703;28;20460;-61
2022/04/22 05:00:36;;;;;;;10.05;5.75;;;8.30;99.90;;;;;;4952703;28;20045;-61
2022/04/22 05:03:03;;;;;;;11.43;5.80;;;8.30;99.90;;;;;;4953009;28;20058;-62
2022/04/22 05:05:29;;;;;;;10.90;5.25;;;8.20;99.90;;;;;;4950715;28;20085;-61
2022/04/22 05:07:57;;;;;;;12.38;6.47;;;8.20;99.90;;;;;;4942799;28;20057;-62
2022/04/22 05:10:28;;;;;;;8.50;5.57;;;8.30;99.90;;;;;;4957047;28;20078;-60
2022/04/22 05:12:54;;;;;;;10.23;5.40;;;8.20;99.90;;;;;;4946330;28;20050;-61
2022/04/22 05:15:24;;;;;;;8.25;5.82;;;8.20;99.90;;;;;;4934405;28;20228;-60
2022/04/22 05:17:51;;;;;;;8.27;5.45;;;8.20;99.90;;;;;;4950888;28;20054;-62
2022/04/22 05:20:20;;;;;;;11.30;5.78;;;8.20;99.90;;;;;;4936087;28;20046;-62
2022/04/22 05:22:46;;;;;;;9.30;5.22;;;8.20;99.90;;;;;;4951185;28;20122;-61
2022/04/22 05:25:13;;;;;;;9.20;5.00;;;8.30;99.90;;;;;;4922830;28;20049;-62
2022/04/22 05:27:40;;;;;;;9.57;5.47;;;8.30;99.90;;;;;;4939258;28;20050;-60
2022/04/22 05:32:53;;;;;;;10.88;6.03;;;8.40;99.90;;;;;;4947762;28;20053;-62
2022/04/22 05:35:27;;;;;;;7.68;5.30;;;8.40;99.90;;;;;;4936395;28;20042;-62
2022/04/22 05:37:52;;;;;;;;;;;8.40;99.90;;;;;;4949993;28;20532;-60
2022/04/22 05:40:24;;;;;;;9.25;5.00;;;8.50;99.90;;;;;;4957211;28;19922;-60
2022/04/22 05:42:51;;;;;;;7.72;4.53;;;8.50;99.90;;;;;;4950879;28;20215;-60
2022/04/22 05:45:18;;;;;;;9.85;4.63;;;8.50;99.90;;;;;;4953152;28;20572;-62
2022/04/22 05:47:44;;;;;;;8.25;4.00;;;8.50;99.90;;;;;;4927064;28;20234;-61
2022/04/22 05:50:12;;;;;;;7.93;4.68;;;8.60;99.90;;;;;;4953589;28;20204;-61
2022/04/22 05:52:39;;;;;;;5.78;4.03;;;8.60;99.90;;;;;;4949324;28;20046;-60
2022/04/22 05:55:10;;;;;;;7.40;4.82;;;8.70;99.90;;;;;;4957809;28;20050;-60
2022/04/22 05:57:37;;;;;;;10.70;4.57;;;8.80;99.90;;;;;;4933006;28;20058;-60
2022/04/22 06:00:12;;;;;;;7.25;3.95;;;8.80;99.90;;;;;;4950833;28;20497;-61
2022/04/22 06:02:39;;;;;;;8.48;4.30;;;8.80;99.90;;;;;;4947927;28;20070;-59
2022/04/22 06:05:05;;;;;;;7.50;3.83;;;8.80;99.90;;;;;;4951467;28;20057;-61
2022/04/22 06:07:31;;;;;;;7.97;4.13;;;8.90;99.90;;;;;;4945840;28;20057;-62
2022/04/22 06:12:40;;;;;;;;;;;9.00;99.90;;;;;;4948646;28;20046;-62
2022/04/22 06:15:07;;;;;;;8.95;3.78;;;9.10;99.90;;;;;;4953432;28;19936;-60
2022/04/22 06:17:32;;;;;;;6.80;3.58;;;9.20;99.90;;;;;;4930211;28;20519;-61
2022/04/22 06:19:58;;;;;;;6.47;3.60;;;9.30;99.90;;;;;;4942646;28;20116;-62
2022/04/22 06:22:26;;;;;;;6.38;3.50;;;9.40;99.90;;;;;;4945079;28;21759;-61
2022/04/22 06:24:52;;;;;;;6.32;3.78;;;9.40;99.90;;;;;;4925021;28;20046;-60
2022/04/22 06:27:35;;;;;;;5.38;3.00;;;9.60;99.90;;;;;;4934644;28;20050;-62
2022/04/22 06:30:07;;;;;;;6.22;3.25;;;9.60;99.90;;;;;;4946250;28;20057;-61
2022/04/22 06:32:33;;;;;;;6.90;3.50;;;9.70;99.90;;;;;;4923177;28;20085;-61
2022/04/22 06:34:59;;;;;;;6.75;3.08;;;9.80;99.90;;;;;;4960246;28;20054;-62
2022/04/22 06:37:25;;;;;;;6.07;2.97;;;9.80;99.90;;;;;;4947560;28;20089;-63
2022/04/22 06:48:04;;;;;;;;;;;10.00;99.90;;;;;;4958016;28;22574;-61
2022/04/22 06:50:31;;;;;;;4.85;3.28;;;10.00;99.90;;;;;;4955628;28;20299;-63
2022/04/22 06:52:56;;;;;;;6.78;3.72;;;10.10;99.90;;;;;;4951789;28;20082;-63
2022/04/22 06:55:24;;;;;;;5.18;2.97;;;10.20;99.90;;;;;;4954829;28;20259;-64
2022/04/22 06:57:50;;;;;;;9.70;3.35;;;10.30;99.90;;;;;;4945759;28;20085;-61
2022/04/22 07:00:20;;;;;;;6.50;3.03;;;10.40;99.90;;;;;;4959223;28;20077;-62
2022/04/22 07:02:46;;;;;;;6.35;3.13;;;10.50;99.90;;;;;;4968135;28;20041;-63
2022/04/22 07:05:12;;;;;;;4.88;2.50;;;10.60;99.90;;;;;;4949130;28;20057;-61
2022/04/22 07:07:39;;;;;;;5.35;2.65;;;10.70;99.90;;;;;;4960963;28;20045;-63
2022/04/22 07:10:05;;;;;;;10.02;3.08;;;10.80;99.90;;;;;;4960586;28;20050;-63
2022/04/22 07:12:32;;;;;;;7.90;3.25;;;10.80;99.90;;;;;;4957426;28;20046;-62
2022/04/22 07:15:05;;;;;;;5.53;2.80;;;10.90;99.90;;;;;;4975462;28;20052;-62
2022/04/22 07:17:35;;;;;;;6.70;2.55;;;11.00;99.90;;;;;;4955548;28;21456;-63
2022/04/22 07:20:09;;;;;;;4.03;2.72;;;11.10;99.60;;;;;;4959278;28;20129;-62
2022/04/22 07:22:39;;;;;;;3.58;2.70;;;11.10;99.20;;;;;;4955081;28;20157;-61
2022/04/22 07:25:06;;;;;;;10.88;3.22;;;11.20;99.40;;;;;;4930237;28;20037;-64
2022/04/22 07:27:34;;;;;;;10.45;3.05;;;11.40;99.30;;;;;;4938025;28;20806;-65
2022/04/22 07:30:01;;;;;;;6.95;2.40;;;11.50;98.50;;;;;;4954445;28;20042;-63
2022/04/22 07:32:27;;;;;;;7.10;3.08;;;11.70;98.80;;;;;;4952695;28;20076;-60
2022/04/22 07:34:56;;;;;;;4.07;2.33;;;11.90;98.60;;;;;;4939009;28;20133;-64
2022/04/22 07:37:22;;;;;;;5.85;2.47;;;12.00;98.00;;;;;;4957299;28;20057;-62
2022/04/22 07:39:49;;;;;;;4.93;2.78;;;12.00;97.60;;;;;;4932383;28;20201;-59
2022/04/22 07:42:18;;;;;;;5.88;2.60;;;12.10;97.00;;;;;;4956577;28;20505;-62
2022/04/22 07:47:35;;;;;;;4.88;2.45;;;12.20;96.80;;;;;;4960852;28;20046;-63
2022/04/22 07:50:05;;;;;;;5.78;2.63;;;12.30;96.90;;;;;;4961977;28;20133;-62
2022/04/22 07:52:35;;;;;;;5.68;2.58;;;12.30;96.40;;;;;;4972316;28;20460;-62
2022/04/22 07:55:01;;;;;;;5.60;2.67;;;12.30;96.50;;;;;;4971975;28;20050;-62
2022/04/22 07:57:28;;;;;;;4.43;2.35;;;12.50;96.80;;;;;;4971076;28;20340;-63
2022/04/22 07:59:54;;;;;;;5.90;2.75;;;12.60;96.70;;;;;;4970897;28;20046;-63
2022/04/22 08:02:20;;;;;;;4.05;2.22;;;12.70;96.80;;;;;;4956292;28;20233;-62
2022/04/22 08:04:46;;;;;;;5.57;2.95;;;12.80;95.80;;;;;;4933365;28;20490;-63
2022/04/22 08:07:11;;;;;;;5.53;3.03;;;12.80;95.50;;;;;;4939522;28;20153;-62
2022/04/22 08:09:38;;;;;;;5.78;2.90;;;12.70;94.80;;;;;;4956014;28;20045;-62
2022/04/22 08:12:05;;;;;;;5.22;2.72;;;12.70;95.10;;;;;;4955245;28;20042;-63
2022/04/22 08:14:32;;;;;;;4.22;2.47;;;12.70;95.10;;;;;;4959147;28;20531;-62
2022/04/22 08:17:01;;;;;;;7.25;2.70;;;12.70;95.00;;;;;;4959741;28;20100;-63
2022/04/22 08:19:27;;;;;;;5.93;3.22;;;12.70;95.10;;;;;;4959082;28;20192;-63
2022/04/22 08:21:53;;;;;;;6.22;3.13;;;12.70;95.30;;;;;;4963724;28;20588;-62
2022/04/22 08:24:18;;;;;;;6.80;3.40;;;12.80;94.80;;;;;;4944700;28;20050;-64
2022/04/22 08:26:45;;;;;;;6.15;3.17;;;12.90;94.80;;;;;;4953190;28;20177;-63
2022/04/22 08:29:11;;;;;;;4.53;3.17;;;13.00;95.00;;;;;;4943707;28;20072;-61
2022/04/22 08:31:37;;;;;;;5.30;2.67;;;13.10;95.10;;;;;;4955437;28;20231;-63
2022/04/22 08:34:03;;;;;;;5.72;2.80;;;13.20;95.30;;;;;;4973415;28;20050;-64
2022/04/22 08:36:30;;;;;;;5.32;3.03;;;13.40;94.80;;;;;;4963485;28;20355;-61
2022/04/22 08:38:57;;;;;;;3.83;2.80;;;13.50;94.80;;;;;;4952005;28;20044;-63
2022/04/22 08:41:23;;;;;;;65.75;20.58;;;13.60;94.20;;;;;;4962264;28;20050;-62
2022/04/22 08:43:56;;;;;;;25.65;10.43;;;13.70;96.00;;;;;;4961731;28;20121;-63
2022/04/22 08:51:59;;;;;;;10.27;2.90;;;13.60;94.40;;;;;;4963542;28;20049;-62
2022/04/22 08:54:27;;;;;;;5.43;2.70;;;13.70;94.20;;;;;;4960633;28;20064;-61
2022/04/22 08:56:56;;;;;;;8.05;2.65;;;13.80;93.80;;;;;;4957788;28;20046;-63
2022/04/22 08:59:26;;;;;;;7.35;3.17;;;13.80;93.50;;;;;;4927878;28;20042;-63
2022/04/22 09:01:52;;;;;;;5.28;2.33;;;14.00;93.60;;;;;;4958811;28;20053;-62
2022/04/22 09:04:19;;;;;;;5.57;2.70;;;14.10;93.50;;;;;;4956060;28;20105;-62
2022/04/22 09:06:47;;;;;;;5.25;2.55;;;14.30;93.10;;;;;;4945892;28;20244;-61
2022/04/22 09:09:13;;;;;;;6.50;2.90;;;14.30;92.40;;;;;;4973986;28;20053;-62
2022/04/22 09:11:42;;;;;;;5.57;2.80;;;14.40;92.70;;;;;;4975132;28;20026;-62
2022/04/22 09:14:08;;;;;;;9.73;3.05;;;14.50;92.20;;;;;;4940684;28;20490;-62
2022/04/22 09:16:34;;;;;;;5.55;2.65;;;14.70;92.20;;;;;;4959787;28;20180;-63
2022/04/22 09:19:01;;;;;;;4.35;2.70;;;14.70;91.00;;;;;;4953550;28;20344;-60
2022/04/22 09:21:29;;;;;;;6.38;2.58;;;14.80;90.90;;;;;;4932944;28;20139;-62
2022/04/22 09:23:55;;;;;;;8.77;2.58;;;14.80;91.40;;;;;;4957549;28;20050;-62
2022/04/22 09:26:23;;;;;;;7.45;2.58;;;15.00;91.30;;;;;;4937706;28;20129;-62
2022/04/22 09:28:57;;;;;;;3.90;1.88;;;15.10;90.80;;;;;;4957457;28;20824;-61
2022/04/22 09:31:24;;;;;;;9.35;3.40;;;15.20;90.90;;;;;;4959246;28;20136;-61
2022/04/22 09:33:50;;;;;;;6.28;2.72;;;15.40;91.10;;;;;;4957045;28;20050;-62
2022/04/22 09:45:09;;;;;;;4.47;2.28;;;15.50;87.60;;;;;;4944412;28;20058;-62
2022/04/22 09:47:36;;;;;;;6.32;3.20;;;15.60;89.30;;;;;;4969623;28;20060;-61
2022/04/22 09:50:10;;;;;;;5.47;2.92;;;15.70;88.70;;;;;;4949817;28;20334;-62
2022/04/22 09:52:39;;;;;;;4.68;2.70;;;15.80;86.50;;;;;;4972504;28;20125;-60
2022/04/22 09:55:09;;;;;;;5.97;2.45;;;15.90;88.00;;;;;;4995587;28;20085;-60
2022/04/22 09:58:09;;;;;;;6.45;2.72;;;16.10;84.10;;;;;;4956575;28;20400;-61
2022/04/22 10:00:35;;;;;;;6.00;2.65;;;16.20;85.20;;;;;;4908891;28;20061;-62
2022/04/22 10:03:00;;;;;;;4.07;2.47;;;16.20;85.90;;;;;;4937746;28;20042;-61
2022/04/22 10:05:28;;;;;;;6.00;3.08;;;16.30;85.10;;;;;;4936595;28;20394;-62
2022/04/22 10:07:56;;;;;;;5.60;3.00;;;16.30;84.30;;;;;;4928938;28;20050;-62
2022/04/22 10:10:32;;;;;;;6.60;2.97;;;16.50;85.40;;;;;;4938252;28;20061;-62
2022/04/22 10:13:01;;;;;;;7.32;2.88;;;16.50;83.60;;;;;;4953805;28;20628;-60
2022/04/22 10:15:29;;;;;;;6.60;3.17;;;16.50;84.50;;;;;;4931093;28;20050;-61
2022/04/22 10:17:56;;;;;;;5.75;3.05;;;16.60;83.90;;;;;;4970305;28;20045;-62
2022/04/22 10:20:23;;;;;;;9.27;2.90;;;16.60;84.50;;;;;;4945267;28;20454;-60
2022/04/22 10:22:50;;;;;;;7.13;2.88;;;16.70;84.70;;;;;;4943008;28;20539;-61
2022/04/22 10:25:16;;;;;;;8.85;3.17;;;16.70;85.30;;;;;;4953087;28;20038;-60
2022/04/22 10:27:42;;;;;;;7.07;3.10;;;16.80;85.10;;;;;;4950514;28;20046;-62
2022/04/22 10:30:11;;;;;;;8.60;3.05;;;16.90;85.50;;;;;;4969118;28;20088;-61
2022/04/22 10:32:42;;;;;;;6.00;3.40;;;17.00;83.90;;;;;;4950554;28;20229;-61
2022/04/22 10:35:09;;;;;;;5.03;2.88;;;17.00;82.40;;;;;;4951026;28;20046;-61
2022/04/22 10:37:38;;;;;;;8.25;3.95;;;16.90;84.10;;;;;;4952120;28;20042;-61
2022/04/22 10:40:05;;;;;;;7.68;3.80;;;16.80;85.40;;;;;;4940341;28;20109;-61
2022/04/22 10:42:38;;;;;;;7.47;3.50;;;17.10;86.40;;;;;;4942127;28;20046;-60
2022/04/22 10:47:51;;;;;;;8.77;3.75;;;17.10;85.90;;;;;;4959196;28;20054;-60
2022/04/22 10:50:26;;;;;;;6.93;3.70;;;17.00;86.60;;;;;;4935532;28;20415;-60
2022/04/22 10:53:06;;;;;;;6.22;3.55;;;17.10;87.00;;;;;;4959121;28;21862;-61
2022/04/22 10:55:40;;;;;;;8.65;3.90;;;17.30;86.70;;;;;;4946449;28;20046;-61
2022/04/22 10:58:20;;;;;;;7.60;3.92;;;17.30;86.50;;;;;;4950852;28;20370;-61
2022/04/22 11:00:59;;;;;;;8.15;3.97;;;17.20;86.60;;;;;;4953244;28;20234;-61
2022/04/22 11:03:34;;;;;;;10.80;3.65;;;17.30;87.30;;;;;;4951533;28;20125;-61
2022/04/22 11:06:01;;;;;;;8.05;4.00;;;17.40;87.10;;;;;;4952332;28;20038;-62
2022/04/22 11:08:28;;;;;;;14.30;4.50;;;17.50;87.70;;;;;;4929956;28;20147;-60
2022/04/22 11:10:54;;;;;;;6.20;4.03;;;17.70;87.40;;;;;;4936636;28;21571;-61
2022/04/22 11:13:34;;;;;;;9.05;3.90;;;17.60;87.00;;;;;;4937706;28;20085;-64
2022/04/22 11:16:06;;;;;;;6.97;4.13;;;17.60;86.40;;;;;;4936993;28;20053;-61
2022/04/22 11:18:33;;;;;;;6.05;3.55;;;17.80;87.10;;;;;;4951943;28;20042;-61
2022/04/22 11:21:10;;;;;;;6.97;4.55;;;17.80;86.90;;;;;;4931166;28;20058;-61
2022/04/22 11:23:37;;;;;;;8.90;3.88;;;17.80;86.20;;;;;;4951325;28;20220;-61
2022/04/22 11:26:04;;;;;;;8.35;4.40;;;17.90;86.70;;;;;;4959010;28;20501;-61
2022/04/22 11:28:38;;;;;;;7.40;4.57;;;18.00;86.60;;;;;;4934614;28;20124;-61
2022/04/22 11:31:12;;;;;;;6.10;4.53;;;18.10;85.40;;;;;;4962400;28;20289;-62
2022/04/22 11:33:57;;;;;;;11.77;4.70;;;18.10;85.70;;;;;;4950223;28;20062;-65
2022/04/22 11:36:24;;;;;;;8.55;4.40;;;17.80;83.50;;;;;;4943582;28;20049;-62
2022/04/22 11:38:56;;;;;;;7.05;4.38;;;17.80;84.60;;;;;;4953873;28;20084;-61
2022/04/22 11:41:22;;;;;;;11.13;4.03;;;18.00;85.30;;;;;;4949025;28;20042;-65
2022/04/22 11:43:49;;;;;;;9.40;4.50;;;18.10;85.20;;;;;;4961383;28;20042;-62
2022/04/22 11:46:18;;;;;;;4.85;3.65;;;18.10;85.10;;;;;;4986328;28;20030;-61
2022/04/22 11:48:54;;;;;;;6.35;3.88;;;18.00;83.70;;;;;;4963177;28;20050;-61
2022/04/22 11:51:20;;;;;;;7.93;4.43;;;18.20;84.00;;;;;;4972629;28;20044;-61
2022/04/22 11:53:52;;;;;;;8.25;4.40;;;18.30;84.60;;;;;;4959521;28;20056;-66
2022/04/22 11:56:22;;;;;;;8.20;3.90;;;18.40;83.10;;;;;;4967079;28;20125;-62
2022/04/22 11:58:53;;;;;;;8.82;4.07;;;18.40;81.60;;;;;;4956283;28;20096;-62
2022/04/22 12:06:54;;;;;;;5.88;4.07;;;18.60;81.30;;;;;;4955505;28;20093;-62
2022/04/22 12:09:20;;;;;;;5.07;3.80;;;18.90;81.60;;;;;;4940808;28;20088;-61
2022/04/22 12:11:49;;;;;;;8.80;3.85;;;18.90;80.20;;;;;;4961983;28;20046;-64
2022/04/22 12:14:23;;;;;;;5.78;4.40;;;19.10;79.60;;;;;;4951086;28;20668;-62
2022/04/22 12:16:56;;;;;;;;;;;19.10;79.50;;;;;;4974248;28;20070;-60
2022/04/22 12:19:23;;;;;;;7.05;4.93;;;19.10;77.30;;;;;;4956180;28;19925;-61
2022/04/22 12:21:49;;;;;;;8.15;4.32;;;19.20;76.60;;;;;;4958775;28;20074;-61
2022/04/22 12:24:16;;;;;;;10.68;4.53;;;19.20;78.10;;;;;;4936341;28;20039;-65
2022/04/22 12:26:44;;;;;;;5.80;3.80;;;19.30;77.30;;;;;;4974822;28;20054;-61
2022/04/22 12:29:11;;;;;;;8.60;4.20;;;19.40;76.90;;;;;;4972696;28;20037;-63
2022/04/22 12:31:45;;;;;;;7.20;3.80;;;19.50;74.50;;;;;;4965690;28;20156;-60
2022/04/22 12:34:24;;;;;;;7.13;4.15;;;19.40;73.70;;;;;;4954651;28;20042;-61
2022/04/22 12:36:53;;;;;;;7.22;4.50;;;19.50;74.50;;;;;;4958358;28;20053;-62
2022/04/22 12:39:39;;;;;;;11.98;5.38;;;19.60;72.10;;;;;;4948903;28;20109;-62
2022/04/22 12:42:17;;;;;;;6.85;4.38;;;19.70;71.80;;;;;;4948675;28;20140;-60
2022/04/22 12:52:08;;;;;;;5.65;4.18;;;19.80;73.30;;;;;;4957233;28;20046;-62
2022/04/22 12:53:34;;;;;;;5.40;4.28;;;20.00;72.10;;;;;;4946859;28;20062;-62
2022/04/22 12:56:02;;;;;;;7.90;4.88;;;20.00;69.60;;;;;;4946483;28;20056;-62
2022/04/22 12:58:28;;;;;;;9.68;4.82;;;20.00;70.20;;;;;;4945736;28;20130;-62
2022/04/22 13:00:55;;;;;;;10.75;5.53;;;20.00;71.70;;;;;;4952644;28;20065;-62
2022/04/22 13:03:23;;;;;;;6.88;5.30;;;19.90;73.60;;;;;;4955281;28;20046;-62
2022/04/22 13:05:49;;;;;;;9.63;5.05;;;19.90;75.80;;;;;;4966920;28;20051;-64
2022/04/22 13:08:15;;;;;;;8.38;5.60;;;20.00;76.70;;;;;;4950642;28;20050;-61
2022/04/22 13:10:42;;;;;;;8.93;5.18;;;20.00;76.00;;;;;;4954460;28;20054;-61
2022/04/22 13:13:12;;;;;;;7.45;5.15;;;20.00;75.40;;;;;;4972622;28;20088;-61
2022/04/22 13:15:38;;;;;;;11.07;5.25;;;20.00;75.70;;;;;;4979963;28;20128;-61
2022/04/22 13:18:04;;;;;;;11.32;6.07;;;20.00;75.20;;;;;;4979664;28;20121;-62
2022/04/22 13:20:30;;;;;;;10.13;5.53;;;19.50;74.90;;;;;;5000768;28;20053;-63
2022/04/22 13:22:56;;;;;;;9.45;5.53;;;19.30;76.30;;;;;;4969882;28;20669;-63
2022/04/22 13:25:22;;;;;;;9.75;5.63;;;19.20;77.70;;;;;;4977320;28;20140;-61
2022/04/22 13:27:49;;;;;;;11.35;5.75;;;19.50;78.20;;;;;;4959915;28;20042;-60
2022/04/22 13:30:15;;;;;;;11.00;5.65;;;19.70;77.80;;;;;;5003348;28;20370;-61
2022/04/22 13:32:41;;;;;;;8.35;6.03;;;19.80;77.20;;;;;;4977514;28;20031;-60
2022/04/22 13:35:10;;;;;;;10.55;5.57;;;19.70;76.80;;;;;;4982064;28;20053;-63
2022/04/22 13:37:36;;;;;;;7.78;5.78;;;19.80;75.80;;;;;;4952767;28;20069;-62
2022/04/22 13:40:03;;;;;;;10.55;5.65;;;19.90;75.30;;;;;;4973465;28;20047;-62
2022/04/22 13:42:28;;;;;;;9.15;5.07;;;20.10;75.60;;;;;;4984329;28;20042;-62
2022/04/22 13:53:07;;;;;;;8.23;5.78;;;20.00;75.80;;;;;;4960757;28;20042;-65
2022/04/22 13:55:36;;;;;;;10.90;5.45;;;19.90;76.80;;;;;;4974026;28;20034;-64
2022/04/22 13:58:01;;;;;;;13.18;5.97;;;19.90;76.40;;;;;;4976482;28;20049;-60
2022/04/22 14:00:28;;;;;;;10.60;6.00;;;19.70;75.60;;;;;;4965566;28;20038;-61
2022/04/22 14:02:55;;;;;;;9.43;5.88;;;19.60;76.30;;;;;;4975649;28;20494;-60
2022/04/22 14:05:23;;;;;;;18.65;6.55;;;19.40;77.10;;;;;;4978441;28;20034;-61